sensor_id;sensor_type;location;lat;lon;timestamp;P1;durP1;ratioP1;P2;durP2;ratioP2
73136;SDS011;67767;45.636;11.756;2023-11-19T00:00:37;51.97;;;30.47;;
73136;SDS011;67767;45.636;11.756;2023-11-19T00:03:02;49.10;;;27.77;;
73136;SDS011;67767;45.636;11.756;2023-11-19T00:05:28;55.37;;;29.13;;
73136;SDS011;67767;45.636;11.756;2023-11-19T00:07:54;54.25;;;30.30;;
73136;SDS011;67767;45.636;11.756;2023-11-19T00:10:19;45.87;;;28.73;;
73136;SDS011;67767;45.636;11.756;2023-11-19T00:12:49;46.80;;;27.87;;
73136;SDS011;67767;45.636;11.756;2023-11-19T00:15:18;46.28;;;27.60;;
73136;SDS011;67767;45.636;11.756;2023-11-19T00:17:44;47.63;;;28.15;;
73136;SDS011;67767;45.636;11.756;2023-11-19T00:22:41;48.75;;;28.48;;
73136;SDS011;67767;45.636;11.756;2023-11-19T00:25:07;45.77;;;26.67;;
73136;SDS011;67767;45.636;11.756;2023-11-19T00:27:34;46.30;;;25.80;;
73136;SDS011;67767;45.636;11.756;2023-11-19T00:29:59;46.65;;;26.63;;
73136;SDS011;67767;45.636;11.756;2023-11-19T00:32:25;53.00;;;28.10;;
73136;SDS011;67767;45.636;11.756;2023-11-19T00:34:51;50.60;;;26.38;;
73136;SDS011;67767;45.636;11.756;2023-11-19T00:37:17;47.08;;;26.40;;
73136;SDS011;67767;45.636;11.756;2023-11-19T00:39:42;43.30;;;25.87;;
73136;SDS011;67767;45.636;11.756;2023-11-19T00:42:08;46.42;;;24.67;;
73136;SDS011;67767;45.636;11.756;2023-11-19T00:44:35;44.97;;;25.52;;
73136;SDS011;67767;45.636;11.756;2023-11-19T00:47:01;42.77;;;24.57;;
73136;SDS011;67767;45.636;11.756;2023-11-19T00:49:27;39.25;;;24.05;;
73136;SDS011;67767;45.636;11.756;2023-11-19T00:51:53;42.78;;;24.08;;
73136;SDS011;67767;45.636;11.756;2023-11-19T00:54:19;42.63;;;24.20;;
73136;SDS011;67767;45.636;11.756;2023-11-19T00:56:45;43.13;;;22.52;;
73136;SDS011;67767;45.636;11.756;2023-11-19T00:59:10;41.50;;;23.15;;
73136;SDS011;67767;45.636;11.756;2023-11-19T01:01:36;46.27;;;25.10;;
73136;SDS011;67767;45.636;11.756;2023-11-19T01:04:02;41.83;;;25.17;;
73136;SDS011;67767;45.636;11.756;2023-11-19T01:06:28;44.38;;;24.42;;
73136;SDS011;67767;45.636;11.756;2023-11-19T01:08:55;41.25;;;23.48;;
73136;SDS011;67767;45.636;11.756;2023-11-19T01:11:22;40.60;;;22.67;;
73136;SDS011;67767;45.636;11.756;2023-11-19T01:13:48;42.03;;;23.70;;
73136;SDS011;67767;45.636;11.756;2023-11-19T01:16:14;40.15;;;22.45;;
73136;SDS011;67767;45.636;11.756;2023-11-19T01:18:40;42.58;;;24.35;;
73136;SDS011;67767;45.636;11.756;2023-11-19T01:21:06;42.60;;;23.25;;
73136;SDS011;67767;45.636;11.756;2023-11-19T01:23:32;45.27;;;24.03;;
73136;SDS011;67767;45.636;11.756;2023-11-19T01:25:58;38.73;;;21.93;;
73136;SDS011;67767;45.636;11.756;2023-11-19T01:28:23;41.88;;;22.60;;
73136;SDS011;67767;45.636;11.756;2023-11-19T01:30:52;38.25;;;22.25;;
73136;SDS011;67767;45.636;11.756;2023-11-19T01:33:18;43.43;;;23.63;;
73136;SDS011;67767;45.636;11.756;2023-11-19T01:35:44;39.75;;;22.20;;
73136;SDS011;67767;45.636;11.756;2023-11-19T01:38:09;40.03;;;22.45;;
73136;SDS011;67767;45.636;11.756;2023-11-19T01:40:35;38.30;;;22.35;;
73136;SDS011;67767;45.636;11.756;2023-11-19T01:43:02;42.93;;;23.83;;
73136;SDS011;67767;45.636;11.756;2023-11-19T01:45:29;43.08;;;23.58;;
73136;SDS011;67767;45.636;11.756;2023-11-19T01:47:59;52.47;;;30.08;;
73136;SDS011;67767;45.636;11.756;2023-11-19T01:50:28;46.55;;;26.80;;
73136;SDS011;67767;45.636;11.756;2023-11-19T01:52:55;40.85;;;23.55;;
73136;SDS011;67767;45.636;11.756;2023-11-19T01:55:25;46.40;;;27.80;;
73136;SDS011;67767;45.636;11.756;2023-11-19T01:57:53;41.70;;;24.00;;
73136;SDS011;67767;45.636;11.756;2023-11-19T02:00:24;35.67;;;20.95;;
73136;SDS011;67767;45.636;11.756;2023-11-19T02:02:50;36.17;;;21.52;;
73136;SDS011;67767;45.636;11.756;2023-11-19T02:05:17;37.88;;;21.52;;
73136;SDS011;67767;45.636;11.756;2023-11-19T02:07:43;37.73;;;21.07;;
73136;SDS011;67767;45.636;11.756;2023-11-19T02:10:10;36.60;;;20.05;;
73136;SDS011;67767;45.636;11.756;2023-11-19T02:12:42;37.78;;;20.63;;
73136;SDS011;67767;45.636;11.756;2023-11-19T02:15:08;36.42;;;20.45;;
73136;SDS011;67767;45.636;11.756;2023-11-19T02:17:35;36.20;;;19.63;;
73136;SDS011;67767;45.636;11.756;2023-11-19T02:20:03;35.60;;;19.55;;
73136;SDS011;67767;45.636;11.756;2023-11-19T02:22:34;38.85;;;20.10;;
73136;SDS011;67767;45.636;11.756;2023-11-19T02:25:00;32.22;;;18.83;;
73136;SDS011;67767;45.636;11.756;2023-11-19T02:30:22;36.43;;;19.27;;
73136;SDS011;67767;45.636;11.756;2023-11-19T02:32:53;36.25;;;19.27;;
73136;SDS011;67767;45.636;11.756;2023-11-19T02:35:28;38.90;;;20.95;;
73136;SDS011;67767;45.636;11.756;2023-11-19T02:37:57;38.08;;;20.98;;
73136;SDS011;67767;45.636;11.756;2023-11-19T02:40:24;39.03;;;20.95;;
73136;SDS011;67767;45.636;11.756;2023-11-19T02:42:50;36.93;;;19.50;;
73136;SDS011;67767;45.636;11.756;2023-11-19T02:45:21;38.47;;;18.80;;
73136;SDS011;67767;45.636;11.756;2023-11-19T02:47:48;39.75;;;20.83;;
73136;SDS011;67767;45.636;11.756;2023-11-19T02:50:14;36.78;;;19.77;;
73136;SDS011;67767;45.636;11.756;2023-11-19T02:52:43;34.80;;;19.07;;
73136;SDS011;67767;45.636;11.756;2023-11-19T02:55:11;36.47;;;18.52;;
73136;SDS011;67767;45.636;11.756;2023-11-19T02:57:40;34.60;;;19.90;;
73136;SDS011;67767;45.636;11.756;2023-11-19T03:00:20;33.70;;;19.55;;
73136;SDS011;67767;45.636;11.756;2023-11-19T03:02:50;39.40;;;19.87;;
73136;SDS011;67767;45.636;11.756;2023-11-19T03:05:35;39.33;;;20.95;;
73136;SDS011;67767;45.636;11.756;2023-11-19T03:08:00;35.67;;;20.80;;
73136;SDS011;67767;45.636;11.756;2023-11-19T03:10:26;35.77;;;20.33;;
73136;SDS011;67767;45.636;11.756;2023-11-19T03:12:54;33.47;;;19.67;;
73136;SDS011;67767;45.636;11.756;2023-11-19T03:15:21;33.17;;;19.13;;
73136;SDS011;67767;45.636;11.756;2023-11-19T03:17:47;36.60;;;18.87;;
73136;SDS011;67767;45.636;11.756;2023-11-19T03:20:13;33.28;;;19.00;;
73136;SDS011;67767;45.636;11.756;2023-11-19T03:22:41;38.83;;;19.63;;
73136;SDS011;67767;45.636;11.756;2023-11-19T03:25:07;33.93;;;19.37;;
73136;SDS011;67767;45.636;11.756;2023-11-19T03:27:39;35.53;;;19.13;;
73136;SDS011;67767;45.636;11.756;2023-11-19T03:30:07;36.45;;;18.08;;
73136;SDS011;67767;45.636;11.756;2023-11-19T03:32:36;29.70;;;17.23;;
73136;SDS011;67767;45.636;11.756;2023-11-19T03:35:03;34.00;;;17.15;;
73136;SDS011;67767;45.636;11.756;2023-11-19T03:37:32;34.00;;;19.03;;
73136;SDS011;67767;45.636;11.756;2023-11-19T03:39:57;31.75;;;17.80;;
73136;SDS011;67767;45.636;11.756;2023-11-19T03:42:27;33.58;;;17.92;;
73136;SDS011;67767;45.636;11.756;2023-11-19T03:44:53;29.23;;;17.77;;
73136;SDS011;67767;45.636;11.756;2023-11-19T03:47:19;29.63;;;17.45;;
73136;SDS011;67767;45.636;11.756;2023-11-19T03:49:48;32.60;;;16.88;;
73136;SDS011;67767;45.636;11.756;2023-11-19T03:52:15;34.67;;;18.02;;
73136;SDS011;67767;45.636;11.756;2023-11-19T03:54:41;30.60;;;17.33;;
73136;SDS011;67767;45.636;11.756;2023-11-19T03:57:07;31.17;;;16.73;;
73136;SDS011;67767;45.636;11.756;2023-11-19T03:59:32;30.93;;;16.63;;
73136;SDS011;67767;45.636;11.756;2023-11-19T04:01:58;29.63;;;16.25;;
73136;SDS011;67767;45.636;11.756;2023-11-19T04:04:26;30.73;;;16.50;;
73136;SDS011;67767;45.636;11.756;2023-11-19T04:06:53;30.20;;;16.83;;
73136;SDS011;67767;45.636;11.756;2023-11-19T04:09:19;31.73;;;15.82;;
73136;SDS011;67767;45.636;11.756;2023-11-19T04:11:44;30.20;;;17.48;;
73136;SDS011;67767;45.636;11.756;2023-11-19T04:14:12;28.07;;;16.67;;
73136;SDS011;67767;45.636;11.756;2023-11-19T04:16:38;32.75;;;16.60;;
73136;SDS011;67767;45.636;11.756;2023-11-19T04:19:04;27.42;;;16.63;;
73136;SDS011;67767;45.636;11.756;2023-11-19T04:21:31;29.85;;;16.67;;
73136;SDS011;67767;45.636;11.756;2023-11-19T04:23:57;30.35;;;15.88;;
73136;SDS011;67767;45.636;11.756;2023-11-19T04:26:23;30.67;;;15.47;;
73136;SDS011;67767;45.636;11.756;2023-11-19T04:28:48;32.35;;;17.13;;
73136;SDS011;67767;45.636;11.756;2023-11-19T04:31:15;30.13;;;16.67;;
73136;SDS011;67767;45.636;11.756;2023-11-19T04:33:44;32.42;;;18.20;;
73136;SDS011;67767;45.636;11.756;2023-11-19T04:36:10;34.58;;;19.63;;
73136;SDS011;67767;45.636;11.756;2023-11-19T04:38:36;35.40;;;18.97;;
73136;SDS011;67767;45.636;11.756;2023-11-19T04:41:03;31.48;;;19.02;;
73136;SDS011;67767;45.636;11.756;2023-11-19T04:43:30;32.63;;;18.20;;
73136;SDS011;67767;45.636;11.756;2023-11-19T04:45:57;33.28;;;19.38;;
73136;SDS011;67767;45.636;11.756;2023-11-19T04:48:23;31.60;;;18.35;;
73136;SDS011;67767;45.636;11.756;2023-11-19T04:50:49;32.00;;;18.53;;
73136;SDS011;67767;45.636;11.756;2023-11-19T04:53:18;31.88;;;18.13;;
73136;SDS011;67767;45.636;11.756;2023-11-19T04:55:43;32.35;;;17.83;;
73136;SDS011;67767;45.636;11.756;2023-11-19T04:58:09;32.63;;;18.20;;
73136;SDS011;67767;45.636;11.756;2023-11-19T05:00:35;31.20;;;17.35;;
73136;SDS011;67767;45.636;11.756;2023-11-19T05:03:01;30.07;;;16.63;;
73136;SDS011;67767;45.636;11.756;2023-11-19T05:05:26;32.70;;;17.42;;
73136;SDS011;67767;45.636;11.756;2023-11-19T05:07:52;30.03;;;17.20;;
73136;SDS011;67767;45.636;11.756;2023-11-19T05:10:18;26.20;;;16.48;;
73136;SDS011;67767;45.636;11.756;2023-11-19T05:12:43;30.23;;;16.93;;
73136;SDS011;67767;45.636;11.756;2023-11-19T05:15:09;32.33;;;17.67;;
73136;SDS011;67767;45.636;11.756;2023-11-19T05:17:37;29.75;;;17.48;;
73136;SDS011;67767;45.636;11.756;2023-11-19T05:20:02;29.53;;;16.80;;
73136;SDS011;67767;45.636;11.756;2023-11-19T05:22:28;30.40;;;17.75;;
73136;SDS011;67767;45.636;11.756;2023-11-19T05:24:54;28.00;;;17.73;;
73136;SDS011;67767;45.636;11.756;2023-11-19T05:27:20;29.07;;;16.97;;
73136;SDS011;67767;45.636;11.756;2023-11-19T05:29:48;31.10;;;17.52;;
73136;SDS011;67767;45.636;11.756;2023-11-19T05:32:14;29.98;;;17.27;;
73136;SDS011;67767;45.636;11.756;2023-11-19T05:34:40;30.07;;;17.60;;
73136;SDS011;67767;45.636;11.756;2023-11-19T05:37:05;30.33;;;17.00;;
73136;SDS011;67767;45.636;11.756;2023-11-19T05:39:31;36.70;;;19.07;;
73136;SDS011;67767;45.636;11.756;2023-11-19T05:41:57;32.15;;;18.48;;
73136;SDS011;67767;45.636;11.756;2023-11-19T05:44:22;30.57;;;17.17;;
73136;SDS011;67767;45.636;11.756;2023-11-19T05:46:48;31.58;;;18.73;;
73136;SDS011;67767;45.636;11.756;2023-11-19T05:49:14;39.50;;;18.80;;
73136;SDS011;67767;45.636;11.756;2023-11-19T05:51:39;31.73;;;17.40;;
73136;SDS011;67767;45.636;11.756;2023-11-19T05:54:09;34.53;;;19.45;;
73136;SDS011;67767;45.636;11.756;2023-11-19T05:56:35;42.10;;;23.25;;
73136;SDS011;67767;45.636;11.756;2023-11-19T05:59:01;39.95;;;22.27;;
73136;SDS011;67767;45.636;11.756;2023-11-19T06:01:32;40.53;;;20.30;;
73136;SDS011;67767;45.636;11.756;2023-11-19T06:04:01;38.67;;;19.63;;
73136;SDS011;67767;45.636;11.756;2023-11-19T06:06:27;41.00;;;21.17;;
73136;SDS011;67767;45.636;11.756;2023-11-19T06:08:53;36.75;;;19.00;;
73136;SDS011;67767;45.636;11.756;2023-11-19T06:11:20;33.25;;;17.85;;
73136;SDS011;67767;45.636;11.756;2023-11-19T06:13:45;33.33;;;17.90;;
73136;SDS011;67767;45.636;11.756;2023-11-19T06:16:16;35.83;;;18.90;;
73136;SDS011;67767;45.636;11.756;2023-11-19T06:18:41;37.77;;;18.73;;
73136;SDS011;67767;45.636;11.756;2023-11-19T06:21:08;36.78;;;18.95;;
73136;SDS011;67767;45.636;11.756;2023-11-19T06:23:35;32.65;;;17.75;;
73136;SDS011;67767;45.636;11.756;2023-11-19T06:26:00;36.53;;;17.67;;
73136;SDS011;67767;45.636;11.756;2023-11-19T06:28:26;34.93;;;20.77;;
73136;SDS011;67767;45.636;11.756;2023-11-19T06:30:52;32.65;;;18.15;;
73136;SDS011;67767;45.636;11.756;2023-11-19T06:33:18;35.47;;;19.40;;
73136;SDS011;67767;45.636;11.756;2023-11-19T06:35:43;36.28;;;18.30;;
73136;SDS011;67767;45.636;11.756;2023-11-19T06:38:09;31.90;;;17.43;;
73136;SDS011;67767;45.636;11.756;2023-11-19T06:40:35;32.55;;;18.90;;
73136;SDS011;67767;45.636;11.756;2023-11-19T06:43:01;29.33;;;18.23;;
73136;SDS011;67767;45.636;11.756;2023-11-19T06:45:33;32.28;;;19.02;;
73136;SDS011;67767;45.636;11.756;2023-11-19T06:48:00;32.63;;;18.25;;
73136;SDS011;67767;45.636;11.756;2023-11-19T06:50:28;31.90;;;18.67;;
73136;SDS011;67767;45.636;11.756;2023-11-19T06:52:54;33.58;;;19.10;;
73136;SDS011;67767;45.636;11.756;2023-11-19T06:55:19;32.40;;;19.57;;
73136;SDS011;67767;45.636;11.756;2023-11-19T06:57:45;36.42;;;20.10;;
73136;SDS011;67767;45.636;11.756;2023-11-19T07:00:11;29.57;;;18.80;;
73136;SDS011;67767;45.636;11.756;2023-11-19T07:02:37;33.53;;;17.95;;
73136;SDS011;67767;45.636;11.756;2023-11-19T07:05:03;30.75;;;17.33;;
73136;SDS011;67767;45.636;11.756;2023-11-19T07:07:33;28.70;;;16.43;;
73136;SDS011;67767;45.636;11.756;2023-11-19T07:10:00;33.10;;;17.50;;
73136;SDS011;67767;45.636;11.756;2023-11-19T07:12:27;29.92;;;16.80;;
73136;SDS011;67767;45.636;11.756;2023-11-19T07:14:52;35.03;;;19.97;;
73136;SDS011;67767;45.636;11.756;2023-11-19T07:17:20;36.43;;;19.10;;
73136;SDS011;67767;45.636;11.756;2023-11-19T07:19:46;33.50;;;17.73;;
73136;SDS011;67767;45.636;11.756;2023-11-19T07:22:12;30.20;;;17.75;;
73136;SDS011;67767;45.636;11.756;2023-11-19T07:24:40;29.25;;;17.30;;
73136;SDS011;67767;45.636;11.756;2023-11-19T07:27:06;30.70;;;17.43;;
73136;SDS011;67767;45.636;11.756;2023-11-19T07:29:33;27.77;;;16.63;;
73136;SDS011;67767;45.636;11.756;2023-11-19T07:31:59;28.02;;;15.73;;
73136;SDS011;67767;45.636;11.756;2023-11-19T07:34:27;26.85;;;15.48;;
73136;SDS011;67767;45.636;11.756;2023-11-19T07:36:54;26.02;;;15.60;;
73136;SDS011;67767;45.636;11.756;2023-11-19T07:39:22;27.30;;;15.87;;
73136;SDS011;67767;45.636;11.756;2023-11-19T07:41:48;27.35;;;16.15;;
73136;SDS011;67767;45.636;11.756;2023-11-19T07:44:14;28.92;;;17.92;;
73136;SDS011;67767;45.636;11.756;2023-11-19T07:46:40;28.02;;;16.38;;
73136;SDS011;67767;45.636;11.756;2023-11-19T07:49:07;29.43;;;16.90;;
73136;SDS011;67767;45.636;11.756;2023-11-19T07:51:34;26.17;;;15.88;;
73136;SDS011;67767;45.636;11.756;2023-11-19T07:54:00;28.60;;;15.45;;
73136;SDS011;67767;45.636;11.756;2023-11-19T07:56:26;26.90;;;16.90;;
73136;SDS011;67767;45.636;11.756;2023-11-19T07:58:52;27.73;;;16.25;;
73136;SDS011;67767;45.636;11.756;2023-11-19T08:01:18;30.70;;;18.07;;
73136;SDS011;67767;45.636;11.756;2023-11-19T08:03:43;26.95;;;17.38;;
73136;SDS011;67767;45.636;11.756;2023-11-19T08:06:09;30.30;;;17.70;;
73136;SDS011;67767;45.636;11.756;2023-11-19T08:08:35;31.13;;;17.42;;
73136;SDS011;67767;45.636;11.756;2023-11-19T08:11:03;29.15;;;17.85;;
73136;SDS011;67767;45.636;11.756;2023-11-19T08:13:30;26.00;;;16.17;;
73136;SDS011;67767;45.636;11.756;2023-11-19T08:15:56;24.37;;;13.47;;
73136;SDS011;67767;45.636;11.756;2023-11-19T08:18:23;26.30;;;12.82;;
73136;SDS011;67767;45.636;11.756;2023-11-19T08:20:49;22.55;;;12.73;;
73136;SDS011;67767;45.636;11.756;2023-11-19T08:23:18;20.75;;;11.93;;
73136;SDS011;67767;45.636;11.756;2023-11-19T08:25:44;22.35;;;12.10;;
73136;SDS011;67767;45.636;11.756;2023-11-19T08:28:09;24.07;;;12.63;;
73136;SDS011;67767;45.636;11.756;2023-11-19T08:30:35;22.05;;;12.57;;
73136;SDS011;67767;45.636;11.756;2023-11-19T08:33:01;23.00;;;12.73;;
73136;SDS011;67767;45.636;11.756;2023-11-19T08:35:28;22.42;;;13.15;;
73136;SDS011;67767;45.636;11.756;2023-11-19T08:37:54;20.77;;;12.68;;
73136;SDS011;67767;45.636;11.756;2023-11-19T08:40:20;24.20;;;13.27;;
73136;SDS011;67767;45.636;11.756;2023-11-19T08:42:46;24.95;;;13.35;;
73136;SDS011;67767;45.636;11.756;2023-11-19T08:45:12;24.93;;;13.40;;
73136;SDS011;67767;45.636;11.756;2023-11-19T08:47:37;25.92;;;13.43;;
73136;SDS011;67767;45.636;11.756;2023-11-19T08:50:05;23.77;;;11.82;;
73136;SDS011;67767;45.636;11.756;2023-11-19T08:52:31;22.93;;;12.70;;
73136;SDS011;67767;45.636;11.756;2023-11-19T08:54:57;26.58;;;13.13;;
73136;SDS011;67767;45.636;11.756;2023-11-19T08:57:22;26.20;;;13.10;;
73136;SDS011;67767;45.636;11.756;2023-11-19T08:59:49;23.73;;;12.68;;
73136;SDS011;67767;45.636;11.756;2023-11-19T09:02:14;20.83;;;11.50;;
73136;SDS011;67767;45.636;11.756;2023-11-19T09:04:41;21.57;;;12.20;;
73136;SDS011;67767;45.636;11.756;2023-11-19T09:07:07;18.45;;;10.77;;
73136;SDS011;67767;45.636;11.756;2023-11-19T09:09:34;18.33;;;10.57;;
73136;SDS011;67767;45.636;11.756;2023-11-19T09:12:01;22.17;;;10.80;;
73136;SDS011;67767;45.636;11.756;2023-11-19T09:14:28;18.25;;;10.43;;
73136;SDS011;67767;45.636;11.756;2023-11-19T09:16:55;16.90;;;9.52;;
73136;SDS011;67767;45.636;11.756;2023-11-19T09:19:21;13.85;;;8.05;;
73136;SDS011;67767;45.636;11.756;2023-11-19T09:21:47;15.63;;;7.93;;
73136;SDS011;67767;45.636;11.756;2023-11-19T09:24:14;24.67;;;7.53;;
73136;SDS011;67767;45.636;11.756;2023-11-19T09:26:40;11.98;;;6.78;;
73136;SDS011;67767;45.636;11.756;2023-11-19T09:29:07;14.55;;;7.38;;
73136;SDS011;67767;45.636;11.756;2023-11-19T09:31:33;13.17;;;7.33;;
73136;SDS011;67767;45.636;11.756;2023-11-19T09:33:59;12.52;;;7.15;;
73136;SDS011;67767;45.636;11.756;2023-11-19T09:36:25;11.80;;;6.40;;
73136;SDS011;67767;45.636;11.756;2023-11-19T09:38:51;12.43;;;6.80;;
73136;SDS011;67767;45.636;11.756;2023-11-19T09:41:17;13.13;;;7.30;;
73136;SDS011;67767;45.636;11.756;2023-11-19T09:43:44;12.88;;;7.95;;
73136;SDS011;67767;45.636;11.756;2023-11-19T09:46:10;12.05;;;7.25;;
73136;SDS011;67767;45.636;11.756;2023-11-19T09:48:39;12.53;;;7.93;;
73136;SDS011;67767;45.636;11.756;2023-11-19T09:51:10;13.57;;;8.27;;
73136;SDS011;67767;45.636;11.756;2023-11-19T09:53:37;13.68;;;8.38;;
73136;SDS011;67767;45.636;11.756;2023-11-19T09:56:03;13.93;;;8.07;;
73136;SDS011;67767;45.636;11.756;2023-11-19T09:58:30;14.63;;;8.32;;
73136;SDS011;67767;45.636;11.756;2023-11-19T10:00:59;15.37;;;9.60;;
73136;SDS011;67767;45.636;11.756;2023-11-19T10:03:27;17.52;;;9.65;;
73136;SDS011;67767;45.636;11.756;2023-11-19T10:05:57;17.17;;;9.98;;
73136;SDS011;67767;45.636;11.756;2023-11-19T10:08:24;18.45;;;10.70;;
73136;SDS011;67767;45.636;11.756;2023-11-19T10:10:50;16.93;;;10.30;;
73136;SDS011;67767;45.636;11.756;2023-11-19T10:13:17;16.15;;;9.95;;
73136;SDS011;67767;45.636;11.756;2023-11-19T10:15:43;16.55;;;10.10;;
73136;SDS011;67767;45.636;11.756;2023-11-19T10:18:09;16.75;;;10.68;;
73136;SDS011;67767;45.636;11.756;2023-11-19T10:20:35;20.07;;;11.97;;
73136;SDS011;67767;45.636;11.756;2023-11-19T10:23:02;21.65;;;11.40;;
73136;SDS011;67767;45.636;11.756;2023-11-19T10:25:28;19.13;;;11.13;;
73136;SDS011;67767;45.636;11.756;2023-11-19T10:27:55;20.77;;;11.10;;
73136;SDS011;67767;45.636;11.756;2023-11-19T10:30:27;19.90;;;11.13;;
73136;SDS011;67767;45.636;11.756;2023-11-19T10:33:04;19.00;;;11.23;;
73136;SDS011;67767;45.636;11.756;2023-11-19T10:35:34;15.60;;;10.07;;
73136;SDS011;67767;45.636;11.756;2023-11-19T10:38:13;19.50;;;11.10;;
73136;SDS011;67767;45.636;11.756;2023-11-19T10:40:42;17.27;;;10.45;;
73136;SDS011;67767;45.636;11.756;2023-11-19T10:43:09;18.00;;;9.97;;
73136;SDS011;67767;45.636;11.756;2023-11-19T10:45:35;18.00;;;10.60;;
73136;SDS011;67767;45.636;11.756;2023-11-19T10:48:02;17.52;;;9.70;;
73136;SDS011;67767;45.636;11.756;2023-11-19T10:50:38;19.05;;;11.43;;
73136;SDS011;67767;45.636;11.756;2023-11-19T10:53:05;16.33;;;10.10;;
73136;SDS011;67767;45.636;11.756;2023-11-19T10:55:35;15.75;;;10.00;;
73136;SDS011;67767;45.636;11.756;2023-11-19T10:58:05;17.48;;;9.05;;
73136;SDS011;67767;45.636;11.756;2023-11-19T11:00:38;17.17;;;9.95;;
73136;SDS011;67767;45.636;11.756;2023-11-19T11:03:19;15.43;;;8.25;;
73136;SDS011;67767;45.636;11.756;2023-11-19T11:05:49;15.33;;;8.93;;
73136;SDS011;67767;45.636;11.756;2023-11-19T11:08:17;19.20;;;9.20;;
73136;SDS011;67767;45.636;11.756;2023-11-19T11:10:44;16.83;;;8.90;;
73136;SDS011;67767;45.636;11.756;2023-11-19T11:13:18;15.55;;;9.02;;
73136;SDS011;67767;45.636;11.756;2023-11-19T11:15:44;16.17;;;9.15;;
73136;SDS011;67767;45.636;11.756;2023-11-19T11:18:13;15.17;;;8.87;;
73136;SDS011;67767;45.636;11.756;2023-11-19T11:20:39;23.80;;;13.10;;
73136;SDS011;67767;45.636;11.756;2023-11-19T11:28:59;16.23;;;9.20;;
73136;SDS011;67767;45.636;11.756;2023-11-19T11:31:40;17.63;;;9.35;;
73136;SDS011;67767;45.636;11.756;2023-11-19T11:37:18;16.10;;;8.93;;
73136;SDS011;67767;45.636;11.756;2023-11-19T11:39:46;15.85;;;9.00;;
73136;SDS011;67767;45.636;11.756;2023-11-19T11:50:17;16.50;;;10.05;;
73136;SDS011;67767;45.636;11.756;2023-11-19T11:57:54;18.90;;;9.75;;
73136;SDS011;67767;45.636;11.756;2023-11-19T12:03:05;16.95;;;9.85;;
73136;SDS011;67767;45.636;11.756;2023-11-19T12:05:32;17.92;;;9.98;;
73136;SDS011;67767;45.636;11.756;2023-11-19T12:08:04;18.07;;;10.43;;
73136;SDS011;67767;45.636;11.756;2023-11-19T12:10:32;15.55;;;10.20;;
73136;SDS011;67767;45.636;11.756;2023-11-19T12:13:02;15.57;;;9.93;;
73136;SDS011;67767;45.636;11.756;2023-11-19T12:15:33;18.45;;;9.85;;
73136;SDS011;67767;45.636;11.756;2023-11-19T12:18:18;16.67;;;10.40;;
73136;SDS011;67767;45.636;11.756;2023-11-19T12:20:45;16.83;;;9.60;;
73136;SDS011;67767;45.636;11.756;2023-11-19T12:23:10;17.10;;;10.18;;
73136;SDS011;67767;45.636;11.756;2023-11-19T12:25:36;18.15;;;9.80;;
73136;SDS011;67767;45.636;11.756;2023-11-19T12:28:02;16.00;;;9.27;;
73136;SDS011;67767;45.636;11.756;2023-11-19T12:30:29;16.85;;;9.00;;
73136;SDS011;67767;45.636;11.756;2023-11-19T12:32:55;16.17;;;9.10;;
73136;SDS011;67767;45.636;11.756;2023-11-19T12:35:21;16.23;;;9.57;;
73136;SDS011;67767;45.636;11.756;2023-11-19T12:37:49;16.15;;;10.02;;
73136;SDS011;67767;45.636;11.756;2023-11-19T12:42:48;19.10;;;10.70;;
73136;SDS011;67767;45.636;11.756;2023-11-19T12:45:14;17.52;;;10.25;;
73136;SDS011;67767;45.636;11.756;2023-11-19T12:47:42;17.02;;;10.50;;
73136;SDS011;67767;45.636;11.756;2023-11-19T12:50:14;17.30;;;10.40;;
73136;SDS011;67767;45.636;11.756;2023-11-19T12:52:42;17.75;;;10.30;;
73136;SDS011;67767;45.636;11.756;2023-11-19T12:55:24;18.23;;;10.93;;
73136;SDS011;67767;45.636;11.756;2023-11-19T12:57:51;17.20;;;10.65;;
73136;SDS011;67767;45.636;11.756;2023-11-19T13:00:20;17.05;;;11.27;;
73136;SDS011;67767;45.636;11.756;2023-11-19T13:05:32;16.95;;;10.52;;
73136;SDS011;67767;45.636;11.756;2023-11-19T13:08:08;17.40;;;10.37;;
73136;SDS011;67767;45.636;11.756;2023-11-19T13:10:52;17.40;;;10.32;;
73136;SDS011;67767;45.636;11.756;2023-11-19T13:13:19;17.33;;;10.93;;
73136;SDS011;67767;45.636;11.756;2023-11-19T13:15:45;17.42;;;10.85;;
73136;SDS011;67767;45.636;11.756;2023-11-19T13:18:11;19.45;;;10.93;;
73136;SDS011;67767;45.636;11.756;2023-11-19T13:20:37;17.20;;;10.50;;
73136;SDS011;67767;45.636;11.756;2023-11-19T13:23:04;17.05;;;10.57;;
73136;SDS011;67767;45.636;11.756;2023-11-19T13:25:31;17.45;;;12.00;;
73136;SDS011;67767;45.636;11.756;2023-11-19T13:27:57;16.30;;;10.65;;
73136;SDS011;67767;45.636;11.756;2023-11-19T13:30:24;20.45;;;12.23;;
73136;SDS011;67767;45.636;11.756;2023-11-19T13:32:51;19.00;;;11.10;;
73136;SDS011;67767;45.636;11.756;2023-11-19T13:35:17;17.42;;;11.18;;
73136;SDS011;67767;45.636;11.756;2023-11-19T13:37:44;17.63;;;11.57;;
73136;SDS011;67767;45.636;11.756;2023-11-19T13:40:10;18.13;;;11.48;;
73136;SDS011;67767;45.636;11.756;2023-11-19T13:42:42;18.10;;;11.70;;
73136;SDS011;67767;45.636;11.756;2023-11-19T13:45:11;16.67;;;11.67;;
73136;SDS011;67767;45.636;11.756;2023-11-19T13:47:41;17.70;;;11.80;;
73136;SDS011;67767;45.636;11.756;2023-11-19T13:52:35;16.88;;;11.35;;
73136;SDS011;67767;45.636;11.756;2023-11-19T13:55:03;19.42;;;13.00;;
73136;SDS011;67767;45.636;11.756;2023-11-19T13:57:31;19.57;;;12.83;;
73136;SDS011;67767;45.636;11.756;2023-11-19T13:59:57;17.17;;;11.60;;
73136;SDS011;67767;45.636;11.756;2023-11-19T14:02:23;17.52;;;12.10;;
73136;SDS011;67767;45.636;11.756;2023-11-19T14:04:48;18.53;;;12.23;;
73136;SDS011;67767;45.636;11.756;2023-11-19T14:07:14;18.42;;;11.95;;
73136;SDS011;67767;45.636;11.756;2023-11-19T14:09:41;17.42;;;11.85;;
73136;SDS011;67767;45.636;11.756;2023-11-19T14:12:07;19.73;;;12.60;;
73136;SDS011;67767;45.636;11.756;2023-11-19T14:14:34;18.65;;;12.60;;
73136;SDS011;67767;45.636;11.756;2023-11-19T14:17:01;20.10;;;12.38;;
73136;SDS011;67767;45.636;11.756;2023-11-19T14:19:28;18.08;;;11.77;;
73136;SDS011;67767;45.636;11.756;2023-11-19T14:21:54;19.73;;;12.27;;
73136;SDS011;67767;45.636;11.756;2023-11-19T14:24:19;21.58;;;13.43;;
73136;SDS011;67767;45.636;11.756;2023-11-19T14:26:46;20.70;;;13.03;;
73136;SDS011;67767;45.636;11.756;2023-11-19T14:29:16;21.42;;;12.80;;
73136;SDS011;67767;45.636;11.756;2023-11-19T14:31:41;19.27;;;12.30;;
73136;SDS011;67767;45.636;11.756;2023-11-19T14:34:07;24.52;;;13.93;;
73136;SDS011;67767;45.636;11.756;2023-11-19T14:36:33;21.50;;;12.70;;
73136;SDS011;67767;45.636;11.756;2023-11-19T14:38:59;19.75;;;12.50;;
73136;SDS011;67767;45.636;11.756;2023-11-19T14:41:24;20.85;;;12.82;;
73136;SDS011;67767;45.636;11.756;2023-11-19T14:43:50;20.53;;;13.13;;
73136;SDS011;67767;45.636;11.756;2023-11-19T14:46:16;29.67;;;15.93;;
73136;SDS011;67767;45.636;11.756;2023-11-19T14:48:41;31.85;;;17.50;;